sensor_id;sensor_type;location;lat;lon;timestamp;P1;durP1;ratioP1;P2;durP2;ratioP2
71351;SDS011;59159;51.652;4.864;2023-06-24T00:01:29;5.38;;;1.90;;
71351;SDS011;59159;51.652;4.864;2023-06-24T00:03:56;6.43;;;2.40;;
71351;SDS011;59159;51.652;4.864;2023-06-24T00:06:22;6.03;;;2.50;;
71351;SDS011;59159;51.652;4.864;2023-06-24T00:08:51;5.90;;;2.38;;
71351;SDS011;59159;51.652;4.864;2023-06-24T00:11:17;6.72;;;2.53;;
71351;SDS011;59159;51.652;4.864;2023-06-24T00:13:43;5.90;;;2.37;;
71351;SDS011;59159;51.652;4.864;2023-06-24T00:16:10;7.65;;;2.42;;
71351;SDS011;59159;51.652;4.864;2023-06-24T00:18:37;5.63;;;2.08;;
71351;SDS011;59159;51.652;4.864;2023-06-24T00:21:06;6.43;;;2.67;;
71351;SDS011;59159;51.652;4.864;2023-06-24T00:23:32;6.18;;;2.28;;
71351;SDS011;59159;51.652;4.864;2023-06-24T00:26:01;6.20;;;2.28;;
71351;SDS011;59159;51.652;4.864;2023-06-24T00:28:27;5.75;;;2.20;;
71351;SDS011;59159;51.652;4.864;2023-06-24T00:30:53;5.57;;;2.50;;
71351;SDS011;59159;51.652;4.864;2023-06-24T00:33:19;5.72;;;2.25;;
71351;SDS011;59159;51.652;4.864;2023-06-24T00:35:46;5.72;;;2.22;;
71351;SDS011;59159;51.652;4.864;2023-06-24T00:38:12;5.03;;;1.83;;
71351;SDS011;59159;51.652;4.864;2023-06-24T00:40:38;5.75;;;2.15;;
71351;SDS011;59159;51.652;4.864;2023-06-24T00:43:04;6.43;;;2.63;;
71351;SDS011;59159;51.652;4.864;2023-06-24T00:45:31;5.80;;;2.17;;
71351;SDS011;59159;51.652;4.864;2023-06-24T00:47:57;5.90;;;2.53;;
71351;SDS011;59159;51.652;4.864;2023-06-24T00:50:24;5.82;;;2.30;;
71351;SDS011;59159;51.652;4.864;2023-06-24T00:52:50;5.82;;;2.22;;
71351;SDS011;59159;51.652;4.864;2023-06-24T00:55:16;5.87;;;2.13;;
71351;SDS011;59159;51.652;4.864;2023-06-24T00:57:42;6.30;;;2.05;;
71351;SDS011;59159;51.652;4.864;2023-06-24T01:00:09;5.68;;;2.08;;
71351;SDS011;59159;51.652;4.864;2023-06-24T01:02:39;5.40;;;1.93;;
71351;SDS011;59159;51.652;4.864;2023-06-24T01:05:07;6.82;;;2.80;;
71351;SDS011;59159;51.652;4.864;2023-06-24T01:07:33;5.38;;;2.00;;
71351;SDS011;59159;51.652;4.864;2023-06-24T01:10:01;6.30;;;2.20;;
71351;SDS011;59159;51.652;4.864;2023-06-24T01:12:27;6.38;;;2.20;;
71351;SDS011;59159;51.652;4.864;2023-06-24T01:14:53;6.57;;;2.10;;
71351;SDS011;59159;51.652;4.864;2023-06-24T01:20:27;7.13;;;2.60;;
71351;SDS011;59159;51.652;4.864;2023-06-24T01:25:52;6.45;;;1.88;;
71351;SDS011;59159;51.652;4.864;2023-06-24T01:28:29;5.17;;;1.97;;
71351;SDS011;59159;51.652;4.864;2023-06-24T01:33:35;5.65;;;2.10;;
71351;SDS011;59159;51.652;4.864;2023-06-24T01:36:02;6.63;;;2.13;;
71351;SDS011;59159;51.652;4.864;2023-06-24T01:38:35;5.93;;;2.42;;
71351;SDS011;59159;51.652;4.864;2023-06-24T01:41:02;5.50;;;1.88;;
71351;SDS011;59159;51.652;4.864;2023-06-24T01:43:28;6.03;;;1.90;;
71351;SDS011;59159;51.652;4.864;2023-06-24T01:45:55;6.40;;;2.13;;
71351;SDS011;59159;51.652;4.864;2023-06-24T01:48:25;5.38;;;2.05;;
71351;SDS011;59159;51.652;4.864;2023-06-24T01:50:55;5.20;;;1.80;;
71351;SDS011;59159;51.652;4.864;2023-06-24T01:53:22;6.27;;;1.90;;
71351;SDS011;59159;51.652;4.864;2023-06-24T01:55:49;6.43;;;2.50;;
71351;SDS011;59159;51.652;4.864;2023-06-24T01:58:15;7.63;;;2.40;;
71351;SDS011;59159;51.652;4.864;2023-06-24T02:00:43;5.87;;;2.40;;
71351;SDS011;59159;51.652;4.864;2023-06-24T02:03:09;5.18;;;1.80;;
71351;SDS011;59159;51.652;4.864;2023-06-24T02:05:36;5.55;;;1.92;;
71351;SDS011;59159;51.652;4.864;2023-06-24T02:08:05;6.38;;;2.22;;
71351;SDS011;59159;51.652;4.864;2023-06-24T02:10:32;6.13;;;2.27;;
71351;SDS011;59159;51.652;4.864;2023-06-24T02:12:58;5.97;;;2.00;;
71351;SDS011;59159;51.652;4.864;2023-06-24T02:15:24;6.22;;;2.15;;
71351;SDS011;59159;51.652;4.864;2023-06-24T02:17:51;6.20;;;2.20;;
71351;SDS011;59159;51.652;4.864;2023-06-24T02:20:21;6.13;;;2.50;;
71351;SDS011;59159;51.652;4.864;2023-06-24T02:22:52;6.55;;;2.03;;
71351;SDS011;59159;51.652;4.864;2023-06-24T02:25:18;5.80;;;2.20;;
71351;SDS011;59159;51.652;4.864;2023-06-24T02:27:44;6.18;;;2.05;;
71351;SDS011;59159;51.652;4.864;2023-06-24T02:30:11;5.22;;;1.90;;
71351;SDS011;59159;51.652;4.864;2023-06-24T02:32:38;5.32;;;1.77;;
71351;SDS011;59159;51.652;4.864;2023-06-24T02:35:04;5.47;;;2.10;;
71351;SDS011;59159;51.652;4.864;2023-06-24T02:37:31;5.63;;;1.92;;
71351;SDS011;59159;51.652;4.864;2023-06-24T02:39:57;5.55;;;2.15;;
71351;SDS011;59159;51.652;4.864;2023-06-24T02:42:23;6.33;;;2.33;;
71351;SDS011;59159;51.652;4.864;2023-06-24T02:44:49;6.03;;;2.30;;
71351;SDS011;59159;51.652;4.864;2023-06-24T02:47:15;6.25;;;2.20;;
71351;SDS011;59159;51.652;4.864;2023-06-24T02:49:42;6.27;;;2.00;;
71351;SDS011;59159;51.652;4.864;2023-06-24T02:52:11;6.18;;;2.13;;
71351;SDS011;59159;51.652;4.864;2023-06-24T02:54:37;6.22;;;2.30;;
71351;SDS011;59159;51.652;4.864;2023-06-24T02:57:04;6.63;;;2.75;;
71351;SDS011;59159;51.652;4.864;2023-06-24T02:59:31;6.37;;;2.30;;
71351;SDS011;59159;51.652;4.864;2023-06-24T03:01:57;5.90;;;2.20;;
71351;SDS011;59159;51.652;4.864;2023-06-24T03:04:24;5.35;;;2.08;;
71351;SDS011;59159;51.652;4.864;2023-06-24T03:06:51;7.20;;;1.93;;
71351;SDS011;59159;51.652;4.864;2023-06-24T03:09:17;6.70;;;2.05;;
71351;SDS011;59159;51.652;4.864;2023-06-24T03:11:44;6.20;;;2.35;;
71351;SDS011;59159;51.652;4.864;2023-06-24T03:14:10;5.90;;;2.33;;
71351;SDS011;59159;51.652;4.864;2023-06-24T03:16:36;6.22;;;2.10;;
71351;SDS011;59159;51.652;4.864;2023-06-24T03:19:05;6.78;;;2.08;;
71351;SDS011;59159;51.652;4.864;2023-06-24T03:21:31;7.45;;;2.63;;
71351;SDS011;59159;51.652;4.864;2023-06-24T03:23:58;5.80;;;2.00;;
71351;SDS011;59159;51.652;4.864;2023-06-24T03:26:30;6.03;;;2.10;;
71351;SDS011;59159;51.652;4.864;2023-06-24T03:28:57;7.20;;;2.60;;
71351;SDS011;59159;51.652;4.864;2023-06-24T03:31:23;6.57;;;1.87;;
71351;SDS011;59159;51.652;4.864;2023-06-24T03:33:49;6.63;;;2.17;;
71351;SDS011;59159;51.652;4.864;2023-06-24T03:36:15;7.28;;;2.22;;
71351;SDS011;59159;51.652;4.864;2023-06-24T03:38:41;5.77;;;2.20;;
71351;SDS011;59159;51.652;4.864;2023-06-24T03:41:07;7.20;;;2.40;;
71351;SDS011;59159;51.652;4.864;2023-06-24T03:43:33;9.75;;;3.08;;
71351;SDS011;59159;51.652;4.864;2023-06-24T03:45:59;5.50;;;2.13;;
71351;SDS011;59159;51.652;4.864;2023-06-24T03:48:25;7.03;;;2.00;;
71351;SDS011;59159;51.652;4.864;2023-06-24T03:50:51;6.63;;;2.25;;
71351;SDS011;59159;51.652;4.864;2023-06-24T03:53:17;5.82;;;2.20;;
71351;SDS011;59159;51.652;4.864;2023-06-24T03:55:43;5.97;;;2.00;;
71351;SDS011;59159;51.652;4.864;2023-06-24T03:58:09;6.05;;;2.20;;
71351;SDS011;59159;51.652;4.864;2023-06-24T04:00:35;6.10;;;2.17;;
71351;SDS011;59159;51.652;4.864;2023-06-24T04:03:05;6.87;;;2.50;;
71351;SDS011;59159;51.652;4.864;2023-06-24T04:05:32;6.90;;;2.45;;
71351;SDS011;59159;51.652;4.864;2023-06-24T04:07:58;7.20;;;2.95;;
71351;SDS011;59159;51.652;4.864;2023-06-24T04:10:24;5.60;;;2.10;;
71351;SDS011;59159;51.652;4.864;2023-06-24T04:12:50;6.07;;;2.43;;
71351;SDS011;59159;51.652;4.864;2023-06-24T04:15:16;5.80;;;2.10;;
71351;SDS011;59159;51.652;4.864;2023-06-24T04:17:42;8.20;;;2.38;;
71351;SDS011;59159;51.652;4.864;2023-06-24T04:20:08;6.50;;;2.10;;
71351;SDS011;59159;51.652;4.864;2023-06-24T04:22:37;7.00;;;2.45;;
71351;SDS011;59159;51.652;4.864;2023-06-24T04:25:04;7.80;;;2.45;;
71351;SDS011;59159;51.652;4.864;2023-06-24T04:27:31;8.90;;;3.53;;
71351;SDS011;59159;51.652;4.864;2023-06-24T04:29:58;9.73;;;3.35;;
71351;SDS011;59159;51.652;4.864;2023-06-24T04:32:24;7.95;;;3.60;;
71351;SDS011;59159;51.652;4.864;2023-06-24T04:34:50;10.93;;;3.80;;
71351;SDS011;59159;51.652;4.864;2023-06-24T04:37:16;8.37;;;3.40;;
71351;SDS011;59159;51.652;4.864;2023-06-24T04:39:43;9.18;;;4.18;;
71351;SDS011;59159;51.652;4.864;2023-06-24T04:42:09;9.75;;;4.13;;
71351;SDS011;59159;51.652;4.864;2023-06-24T04:44:36;9.67;;;3.87;;
71351;SDS011;59159;51.652;4.864;2023-06-24T04:47:02;8.80;;;3.60;;
71351;SDS011;59159;51.652;4.864;2023-06-24T04:49:28;9.63;;;3.42;;
71351;SDS011;59159;51.652;4.864;2023-06-24T04:51:54;9.20;;;3.63;;
71351;SDS011;59159;51.652;4.864;2023-06-24T04:54:20;7.88;;;3.55;;
71351;SDS011;59159;51.652;4.864;2023-06-24T04:56:46;7.55;;;3.63;;
71351;SDS011;59159;51.652;4.864;2023-06-24T04:59:14;12.57;;;4.70;;
71351;SDS011;59159;51.652;4.864;2023-06-24T05:01:40;8.90;;;4.10;;
71351;SDS011;59159;51.652;4.864;2023-06-24T05:04:06;8.63;;;4.00;;
71351;SDS011;59159;51.652;4.864;2023-06-24T05:06:32;9.98;;;4.60;;
71351;SDS011;59159;51.652;4.864;2023-06-24T05:08:58;10.90;;;4.63;;
71351;SDS011;59159;51.652;4.864;2023-06-24T05:11:24;8.45;;;3.78;;
71351;SDS011;59159;51.652;4.864;2023-06-24T05:13:50;8.85;;;3.75;;
71351;SDS011;59159;51.652;4.864;2023-06-24T05:16:16;9.07;;;4.30;;
71351;SDS011;59159;51.652;4.864;2023-06-24T05:18:44;10.02;;;4.88;;
71351;SDS011;59159;51.652;4.864;2023-06-24T05:21:10;10.85;;;4.78;;
71351;SDS011;59159;51.652;4.864;2023-06-24T05:23:36;9.10;;;4.45;;
71351;SDS011;59159;51.652;4.864;2023-06-24T05:26:02;9.57;;;4.27;;
71351;SDS011;59159;51.652;4.864;2023-06-24T05:28:29;9.80;;;5.00;;
71351;SDS011;59159;51.652;4.864;2023-06-24T05:30:56;8.95;;;4.30;;
71351;SDS011;59159;51.652;4.864;2023-06-24T05:33:22;8.90;;;4.33;;
71351;SDS011;59159;51.652;4.864;2023-06-24T05:35:48;11.02;;;4.78;;
71351;SDS011;59159;51.652;4.864;2023-06-24T05:38:15;10.13;;;5.00;;
71351;SDS011;59159;51.652;4.864;2023-06-24T05:40:41;10.70;;;5.10;;
71351;SDS011;59159;51.652;4.864;2023-06-24T05:43:07;10.48;;;4.95;;
71351;SDS011;59159;51.652;4.864;2023-06-24T05:45:34;12.18;;;5.78;;
71351;SDS011;59159;51.652;4.864;2023-06-24T05:48:00;9.68;;;5.03;;
71351;SDS011;59159;51.652;4.864;2023-06-24T05:50:29;9.20;;;4.70;;
71351;SDS011;59159;51.652;4.864;2023-06-24T05:52:55;9.10;;;4.88;;
71351;SDS011;59159;51.652;4.864;2023-06-24T05:55:21;9.82;;;4.85;;
71351;SDS011;59159;51.652;4.864;2023-06-24T05:57:47;11.60;;;5.53;;
71351;SDS011;59159;51.652;4.864;2023-06-24T06:00:13;12.77;;;5.97;;
71351;SDS011;59159;51.652;4.864;2023-06-24T06:02:39;12.68;;;5.50;;
71351;SDS011;59159;51.652;4.864;2023-06-24T06:05:05;9.90;;;5.30;;
71351;SDS011;59159;51.652;4.864;2023-06-24T06:07:31;9.65;;;5.22;;
71351;SDS011;59159;51.652;4.864;2023-06-24T06:09:57;10.45;;;5.70;;
71351;SDS011;59159;51.652;4.864;2023-06-24T06:12:23;11.93;;;5.28;;
71351;SDS011;59159;51.652;4.864;2023-06-24T06:14:49;10.70;;;5.37;;
71351;SDS011;59159;51.652;4.864;2023-06-24T06:17:15;10.20;;;5.28;;
71351;SDS011;59159;51.652;4.864;2023-06-24T06:19:41;10.32;;;4.97;;
71351;SDS011;59159;51.652;4.864;2023-06-24T06:22:11;9.30;;;4.83;;
71351;SDS011;59159;51.652;4.864;2023-06-24T06:24:38;9.00;;;4.43;;
71351;SDS011;59159;51.652;4.864;2023-06-24T06:27:04;10.35;;;5.00;;
71351;SDS011;59159;51.652;4.864;2023-06-24T06:29:31;11.10;;;4.83;;
71351;SDS011;59159;51.652;4.864;2023-06-24T06:31:56;10.93;;;5.40;;
71351;SDS011;59159;51.652;4.864;2023-06-24T06:34:22;9.48;;;5.20;;
71351;SDS011;59159;51.652;4.864;2023-06-24T06:36:48;10.07;;;5.18;;
71351;SDS011;59159;51.652;4.864;2023-06-24T06:39:14;10.97;;;4.80;;
71351;SDS011;59159;51.652;4.864;2023-06-24T06:41:40;10.00;;;4.50;;
71351;SDS011;59159;51.652;4.864;2023-06-24T06:44:06;11.45;;;4.75;;
71351;SDS011;59159;51.652;4.864;2023-06-24T06:46:32;10.03;;;4.33;;
71351;SDS011;59159;51.652;4.864;2023-06-24T06:48:58;10.10;;;4.90;;
71351;SDS011;59159;51.652;4.864;2023-06-24T06:51:24;10.40;;;4.80;;
71351;SDS011;59159;51.652;4.864;2023-06-24T06:53:51;9.07;;;4.80;;
71351;SDS011;59159;51.652;4.864;2023-06-24T06:56:22;10.80;;;4.55;;
71351;SDS011;59159;51.652;4.864;2023-06-24T06:58:49;9.60;;;4.43;;
71351;SDS011;59159;51.652;4.864;2023-06-24T07:01:15;8.82;;;4.30;;
71351;SDS011;59159;51.652;4.864;2023-06-24T07:03:41;11.00;;;5.17;;
71351;SDS011;59159;51.652;4.864;2023-06-24T07:06:07;8.77;;;4.68;;
71351;SDS011;59159;51.652;4.864;2023-06-24T07:08:33;9.80;;;4.95;;
71351;SDS011;59159;51.652;4.864;2023-06-24T07:11:00;8.97;;;4.63;;
71351;SDS011;59159;51.652;4.864;2023-06-24T07:13:26;11.32;;;4.55;;
71351;SDS011;59159;51.652;4.864;2023-06-24T07:15:52;10.18;;;4.85;;
71351;SDS011;59159;51.652;4.864;2023-06-24T07:18:18;10.73;;;4.63;;
71351;SDS011;59159;51.652;4.864;2023-06-24T07:20:44;10.48;;;4.40;;
71351;SDS011;59159;51.652;4.864;2023-06-24T07:23:10;9.88;;;4.40;;
71351;SDS011;59159;51.652;4.864;2023-06-24T07:25:36;10.10;;;4.72;;
71351;SDS011;59159;51.652;4.864;2023-06-24T07:28:02;11.50;;;4.67;;
71351;SDS011;59159;51.652;4.864;2023-06-24T07:30:29;9.43;;;4.68;;
71351;SDS011;59159;51.652;4.864;2023-06-24T07:32:55;10.85;;;5.13;;
71351;SDS011;59159;51.652;4.864;2023-06-24T07:35:21;11.23;;;4.37;;
71351;SDS011;59159;51.652;4.864;2023-06-24T07:37:47;10.75;;;4.80;;
71351;SDS011;59159;51.652;4.864;2023-06-24T07:40:13;11.35;;;4.68;;
71351;SDS011;59159;51.652;4.864;2023-06-24T07:42:40;11.60;;;5.10;;
71351;SDS011;59159;51.652;4.864;2023-06-24T07:45:06;9.50;;;3.80;;
71351;SDS011;59159;51.652;4.864;2023-06-24T07:47:32;9.45;;;3.53;;
71351;SDS011;59159;51.652;4.864;2023-06-24T07:49:58;8.07;;;3.20;;
71351;SDS011;59159;51.652;4.864;2023-06-24T07:52:24;11.00;;;4.83;;
71351;SDS011;59159;51.652;4.864;2023-06-24T07:54:50;11.98;;;5.20;;
71351;SDS011;59159;51.652;4.864;2023-06-24T07:57:17;9.88;;;4.65;;
71351;SDS011;59159;51.652;4.864;2023-06-24T07:59:43;9.73;;;3.93;;
71351;SDS011;59159;51.652;4.864;2023-06-24T08:02:09;10.10;;;3.47;;
71351;SDS011;59159;51.652;4.864;2023-06-24T08:04:35;12.10;;;4.07;;
71351;SDS011;59159;51.652;4.864;2023-06-24T08:07:02;8.80;;;3.40;;
71351;SDS011;59159;51.652;4.864;2023-06-24T08:09:28;11.05;;;3.00;;
71351;SDS011;59159;51.652;4.864;2023-06-24T08:11:54;6.55;;;2.60;;
71351;SDS011;59159;51.652;4.864;2023-06-24T08:14:20;6.45;;;2.97;;
71351;SDS011;59159;51.652;4.864;2023-06-24T08:16:46;6.90;;;2.67;;
71351;SDS011;59159;51.652;4.864;2023-06-24T08:19:12;7.20;;;2.88;;
71351;SDS011;59159;51.652;4.864;2023-06-24T08:21:39;7.35;;;2.75;;
71351;SDS011;59159;51.652;4.864;2023-06-24T08:24:06;7.17;;;2.93;;
71351;SDS011;59159;51.652;4.864;2023-06-24T08:26:32;9.80;;;3.40;;
71351;SDS011;59159;51.652;4.864;2023-06-24T08:28:58;7.47;;;2.90;;
71351;SDS011;59159;51.652;4.864;2023-06-24T08:31:24;11.50;;;2.87;;
71351;SDS011;59159;51.652;4.864;2023-06-24T08:33:53;6.28;;;2.50;;
71351;SDS011;59159;51.652;4.864;2023-06-24T08:36:21;7.97;;;2.85;;
71351;SDS011;59159;51.652;4.864;2023-06-24T08:38:48;7.95;;;2.80;;
71351;SDS011;59159;51.652;4.864;2023-06-24T08:41:14;8.23;;;3.03;;
71351;SDS011;59159;51.652;4.864;2023-06-24T08:43:40;7.50;;;3.08;;
71351;SDS011;59159;51.652;4.864;2023-06-24T08:46:08;6.05;;;2.45;;
71351;SDS011;59159;51.652;4.864;2023-06-24T08:48:34;7.00;;;2.90;;
71351;SDS011;59159;51.652;4.864;2023-06-24T08:51:05;7.30;;;2.95;;
71351;SDS011;59159;51.652;4.864;2023-06-24T08:53:33;5.95;;;2.50;;
71351;SDS011;59159;51.652;4.864;2023-06-24T08:55:59;6.00;;;2.67;;
71351;SDS011;59159;51.652;4.864;2023-06-24T08:58:25;7.97;;;2.90;;
71351;SDS011;59159;51.652;4.864;2023-06-24T09:00:52;5.85;;;2.75;;
71351;SDS011;59159;51.652;4.864;2023-06-24T09:03:18;6.85;;;2.65;;
71351;SDS011;59159;51.652;4.864;2023-06-24T09:05:44;5.80;;;2.67;;
71351;SDS011;59159;51.652;4.864;2023-06-24T09:08:10;6.50;;;2.60;;
71351;SDS011;59159;51.652;4.864;2023-06-24T09:10:36;8.15;;;2.70;;
71351;SDS011;59159;51.652;4.864;2023-06-24T09:13:04;6.67;;;2.80;;
71351;SDS011;59159;51.652;4.864;2023-06-24T09:15:31;5.85;;;2.38;;
71351;SDS011;59159;51.652;4.864;2023-06-24T09:17:57;7.13;;;3.00;;
71351;SDS011;59159;51.652;4.864;2023-06-24T09:20:25;6.87;;;2.30;;
71351;SDS011;59159;51.652;4.864;2023-06-24T09:22:51;6.72;;;2.72;;
71351;SDS011;59159;51.652;4.864;2023-06-24T09:25:17;6.32;;;2.83;;
71351;SDS011;59159;51.652;4.864;2023-06-24T09:27:47;6.20;;;2.75;;
71351;SDS011;59159;51.652;4.864;2023-06-24T09:30:20;6.40;;;2.83;;
71351;SDS011;59159;51.652;4.864;2023-06-24T09:32:50;9.50;;;3.50;;
71351;SDS011;59159;51.652;4.864;2023-06-24T09:35:17;8.88;;;3.58;;
71351;SDS011;59159;51.652;4.864;2023-06-24T09:37:48;8.27;;;2.90;;
71351;SDS011;59159;51.652;4.864;2023-06-24T09:40:14;7.45;;;3.30;;
71351;SDS011;59159;51.652;4.864;2023-06-24T09:45:18;8.57;;;4.13;;
71351;SDS011;59159;51.652;4.864;2023-06-24T09:47:44;9.38;;;3.70;;
71351;SDS011;59159;51.652;4.864;2023-06-24T09:50:11;6.80;;;3.40;;
71351;SDS011;59159;51.652;4.864;2023-06-24T09:52:37;8.30;;;3.75;;
71351;SDS011;59159;51.652;4.864;2023-06-24T09:55:04;8.83;;;3.73;;
71351;SDS011;59159;51.652;4.864;2023-06-24T09:57:31;8.00;;;3.55;;
71351;SDS011;59159;51.652;4.864;2023-06-24T09:59:58;12.10;;;3.75;;
71351;SDS011;59159;51.652;4.864;2023-06-24T10:02:24;7.87;;;3.30;;
71351;SDS011;59159;51.652;4.864;2023-06-24T10:04:50;8.38;;;3.83;;
71351;SDS011;59159;51.652;4.864;2023-06-24T10:07:17;8.20;;;3.50;;
71351;SDS011;59159;51.652;4.864;2023-06-24T10:09:43;10.23;;;3.87;;
71351;SDS011;59159;51.652;4.864;2023-06-24T10:12:10;8.57;;;3.35;;
71351;SDS011;59159;51.652;4.864;2023-06-24T10:14:36;6.68;;;3.05;;
71351;SDS011;59159;51.652;4.864;2023-06-24T10:17:02;8.38;;;4.18;;
71351;SDS011;59159;51.652;4.864;2023-06-24T10:19:29;7.07;;;3.10;;
71351;SDS011;59159;51.652;4.864;2023-06-24T10:21:58;8.65;;;3.95;;
71351;SDS011;59159;51.652;4.864;2023-06-24T10:24:28;7.93;;;3.88;;
71351;SDS011;59159;51.652;4.864;2023-06-24T10:26:55;9.03;;;4.10;;
71351;SDS011;59159;51.652;4.864;2023-06-24T10:29:30;9.30;;;3.40;;
71351;SDS011;59159;51.652;4.864;2023-06-24T10:31:57;7.45;;;3.38;;
71351;SDS011;59159;51.652;4.864;2023-06-24T10:34:30;7.97;;;3.00;;
71351;SDS011;59159;51.652;4.864;2023-06-24T10:37:01;10.20;;;3.20;;
71351;SDS011;59159;51.652;4.864;2023-06-24T10:43:04;8.30;;;3.60;;
71351;SDS011;59159;51.652;4.864;2023-06-24T10:47:28;8.02;;;2.78;;
71351;SDS011;59159;51.652;4.864;2023-06-24T10:49:54;6.55;;;2.97;;
71351;SDS011;59159;51.652;4.864;2023-06-24T10:52:21;6.73;;;2.90;;
71351;SDS011;59159;51.652;4.864;2023-06-24T10:54:47;7.13;;;2.70;;
71351;SDS011;59159;51.652;4.864;2023-06-24T10:57:14;7.65;;;2.92;;
71351;SDS011;59159;51.652;4.864;2023-06-24T10:59:41;6.80;;;3.03;;
71351;SDS011;59159;51.652;4.864;2023-06-24T11:02:07;6.70;;;2.78;;
71351;SDS011;59159;51.652;4.864;2023-06-24T11:04:41;7.53;;;3.03;;
71351;SDS011;59159;51.652;4.864;2023-06-24T11:07:07;9.38;;;2.58;;
71351;SDS011;59159;51.652;4.864;2023-06-24T11:09:33;7.60;;;2.63;;
71351;SDS011;59159;51.652;4.864;2023-06-24T11:11:59;8.18;;;3.08;;
71351;SDS011;59159;51.652;4.864;2023-06-24T11:14:27;6.72;;;2.70;;
71351;SDS011;59159;51.652;4.864;2023-06-24T11:16:53;7.53;;;2.83;;
71351;SDS011;59159;51.652;4.864;2023-06-24T11:19:19;7.82;;;2.80;;
71351;SDS011;59159;51.652;4.864;2023-06-24T11:21:45;7.28;;;2.75;;
71351;SDS011;59159;51.652;4.864;2023-06-24T11:24:11;6.53;;;2.27;;
71351;SDS011;59159;51.652;4.864;2023-06-24T11:26:38;6.75;;;2.40;;
71351;SDS011;59159;51.652;4.864;2023-06-24T11:29:10;7.40;;;2.60;;
71351;SDS011;59159;51.652;4.864;2023-06-24T11:31:37;10.52;;;2.80;;
71351;SDS011;59159;51.652;4.864;2023-06-24T11:34:03;8.37;;;2.97;;
71351;SDS011;59159;51.652;4.864;2023-06-24T11:36:29;8.55;;;3.72;;
71351;SDS011;59159;51.652;4.864;2023-06-24T11:38:55;8.13;;;3.42;;
71351;SDS011;59159;51.652;4.864;2023-06-24T11:41:21;7.87;;;3.03;;
71351;SDS011;59159;51.652;4.864;2023-06-24T11:43:48;8.02;;;3.15;;
71351;SDS011;59159;51.652;4.864;2023-06-24T11:46:26;9.27;;;3.50;;
71351;SDS011;59159;51.652;4.864;2023-06-24T11:49:03;7.73;;;2.90;;
71351;SDS011;59159;51.652;4.864;2023-06-24T11:51:29;8.20;;;2.90;;
71351;SDS011;59159;51.652;4.864;2023-06-24T11:53:58;7.03;;;3.33;;
71351;SDS011;59159;51.652;4.864;2023-06-24T11:56:40;7.47;;;2.83;;
71351;SDS011;59159;51.652;4.864;2023-06-24T11:59:06;9.70;;;3.43;;
71351;SDS011;59159;51.652;4.864;2023-06-24T12:01:33;8.60;;;3.03;;
71351;SDS011;59159;51.652;4.864;2023-06-24T12:04:09;8.45;;;3.47;;
71351;SDS011;59159;51.652;4.864;2023-06-24T12:06:35;6.90;;;2.93;;
71351;SDS011;59159;51.652;4.864;2023-06-24T12:09:01;7.38;;;3.00;;
71351;SDS011;59159;51.652;4.864;2023-06-24T12:11:27;7.95;;;2.83;;
71351;SDS011;59159;51.652;4.864;2023-06-24T12:13:53;7.43;;;3.20;;
71351;SDS011;59159;51.652;4.864;2023-06-24T12:16:20;7.70;;;3.00;;
71351;SDS011;59159;51.652;4.864;2023-06-24T12:18:48;7.20;;;2.88;;
71351;SDS011;59159;51.652;4.864;2023-06-24T12:21:14;6.35;;;2.45;;
71351;SDS011;59159;51.652;4.864;2023-06-24T12:23:40;7.10;;;2.90;;
71351;SDS011;59159;51.652;4.864;2023-06-24T12:26:05;6.07;;;2.63;;
71351;SDS011;59159;51.652;4.864;2023-06-24T12:28:31;7.25;;;2.85;;
71351;SDS011;59159;51.652;4.864;2023-06-24T12:30:57;7.60;;;2.90;;
71351;SDS011;59159;51.652;4.864;2023-06-24T12:33:23;6.53;;;2.75;;
71351;SDS011;59159;51.652;4.864;2023-06-24T12:35:49;6.78;;;2.95;;
71351;SDS011;59159;51.652;4.864;2023-06-24T12:38:15;7.33;;;2.30;;
71351;SDS011;59159;51.652;4.864;2023-06-24T12:40:41;7.72;;;2.58;;
71351;SDS011;59159;51.652;4.864;2023-06-24T12:43:08;6.60;;;2.40;;
71351;SDS011;59159;51.652;4.864;2023-06-24T12:45:34;7.15;;;2.95;;
71351;SDS011;59159;51.652;4.864;2023-06-24T12:48:01;6.17;;;2.63;;
71351;SDS011;59159;51.652;4.864;2023-06-24T12:50:27;6.35;;;2.28;;
71351;SDS011;59159;51.652;4.864;2023-06-24T12:52:56;7.60;;;2.70;;
71351;SDS011;59159;51.652;4.864;2023-06-24T12:55:22;6.23;;;2.60;;
71351;SDS011;59159;51.652;4.864;2023-06-24T12:57:48;7.45;;;2.70;;
71351;SDS011;59159;51.652;4.864;2023-06-24T13:00:14;6.97;;;2.35;;
71351;SDS011;59159;51.652;4.864;2023-06-24T13:02:42;7.57;;;2.87;;
71351;SDS011;59159;51.652;4.864;2023-06-24T13:05:08;7.88;;;2.53;;
71351;SDS011;59159;51.652;4.864;2023-06-24T13:07:34;5.75;;;2.17;;
71351;SDS011;59159;51.652;4.864;2023-06-24T13:10:00;6.60;;;2.35;;
71351;SDS011;59159;51.652;4.864;2023-06-24T13:12:26;5.93;;;2.50;;
71351;SDS011;59159;51.652;4.864;2023-06-24T13:14:52;7.50;;;2.50;;
71351;SDS011;59159;51.652;4.864;2023-06-24T13:17:18;5.88;;;2.42;;
71351;SDS011;59159;51.652;4.864;2023-06-24T13:19:44;5.67;;;2.13;;
71351;SDS011;59159;51.652;4.864;2023-06-24T13:22:10;6.82;;;2.50;;
71351;SDS011;59159;51.652;4.864;2023-06-24T13:24:36;6.45;;;2.63;;
71351;SDS011;59159;51.652;4.864;2023-06-24T13:27:03;5.43;;;2.10;;
71351;SDS011;59159;51.652;4.864;2023-06-24T13:29:29;5.47;;;2.13;;
71351;SDS011;59159;51.652;4.864;2023-06-24T13:31:55;6.40;;;2.42;;
71351;SDS011;59159;51.652;4.864;2023-06-24T13:34:21;5.85;;;2.35;;
71351;SDS011;59159;51.652;4.864;2023-06-24T13:36:47;8.40;;;2.50;;
71351;SDS011;59159;51.652;4.864;2023-06-24T13:39:13;6.68;;;3.10;;
71351;SDS011;59159;51.652;4.864;2023-06-24T13:41:42;5.97;;;1.85;;
71351;SDS011;59159;51.652;4.864;2023-06-24T13:44:07;6.83;;;2.40;;
71351;SDS011;59159;51.652;4.864;2023-06-24T13:46:34;7.35;;;2.70;;
71351;SDS011;59159;51.652;4.864;2023-06-24T13:49:01;7.03;;;2.90;;
71351;SDS011;59159;51.652;4.864;2023-06-24T13:51:27;7.43;;;2.97;;
71351;SDS011;59159;51.652;4.864;2023-06-24T13:53:53;6.75;;;2.40;;
71351;SDS011;59159;51.652;4.864;2023-06-24T13:56:21;16.50;;;2.75;;
71351;SDS011;59159;51.652;4.864;2023-06-24T13:58:49;11.00;;;2.90;;
71351;SDS011;59159;51.652;4.864;2023-06-24T14:01:15;6.70;;;3.10;;
71351;SDS011;59159;51.652;4.864;2023-06-24T14:03:41;7.05;;;2.92;;
71351;SDS011;59159;51.652;4.864;2023-06-24T14:06:07;7.00;;;2.97;;
71351;SDS011;59159;51.652;4.864;2023-06-24T14:08:33;6.57;;;2.60;;
71351;SDS011;59159;51.652;4.864;2023-06-24T14:11:01;7.22;;;2.33;;
71351;SDS011;59159;51.652;4.864;2023-06-24T14:13:28;6.53;;;3.20;;
71351;SDS011;59159;51.652;4.864;2023-06-24T14:15:57;7.43;;;2.53;;
71351;SDS011;59159;51.652;4.864;2023-06-24T14:18:23;6.40;;;2.55;;
71351;SDS011;59159;51.652;4.864;2023-06-24T14:20:50;7.57;;;2.78;;
71351;SDS011;59159;51.652;4.864;2023-06-24T14:23:16;5.80;;;2.50;;
71351;SDS011;59159;51.652;4.864;2023-06-24T14:25:42;6.57;;;2.63;;
71351;SDS011;59159;51.652;4.864;2023-06-24T14:28:08;6.03;;;2.60;;
71351;SDS011;59159;51.652;4.864;2023-06-24T14:30:34;6.43;;;2.53;;
71351;SDS011;59159;51.652;4.864;2023-06-24T14:33:00;5.73;;;2.50;;
71351;SDS011;59159;51.652;4.864;2023-06-24T14:35:26;5.90;;;2.50;;
71351;SDS011;59159;51.652;4.864;2023-06-24T14:37:52;5.93;;;2.60;;
71351;SDS011;59159;51.652;4.864;2023-06-24T14:40:18;6.40;;;2.30;;
71351;SDS011;59159;51.652;4.864;2023-06-24T14:42:44;5.80;;;2.35;;
71351;SDS011;59159;51.652;4.864;2023-06-24T14:45:10;7.80;;;2.20;;
71351;SDS011;59159;51.652;4.864;2023-06-24T14:47:36;6.30;;;2.10;;
71351;SDS011;59159;51.652;4.864;2023-06-24T14:50:03;6.67;;;2.50;;
71351;SDS011;59159;51.652;4.864;2023-06-24T14:52:29;6.57;;;2.38;;
71351;SDS011;59159;51.652;4.864;2023-06-24T14:54:55;5.05;;;1.83;;
71351;SDS011;59159;51.652;4.864;2023-06-24T14:57:21;4.87;;;2.00;;
71351;SDS011;59159;51.652;4.864;2023-06-24T14:59:49;6.85;;;2.22;;